sensor_id;sensor_type;location;lat;lon;timestamp;temperature;humidity
1055;DHT22;516;51.482;7.120;2022-11-14T00:01:23;2.90;99.90
1055;DHT22;516;51.482;7.120;2022-11-14T00:07:10;2.70;99.90
1055;DHT22;516;51.482;7.120;2022-11-14T00:12:58;2.70;99.90
1055;DHT22;516;51.482;7.120;2022-11-14T00:18:45;2.50;99.90
1055;DHT22;516;51.482;7.120;2022-11-14T00:24:34;2.40;99.90
1055;DHT22;516;51.482;7.120;2022-11-14T00:30:21;2.50;99.90
1055;DHT22;516;51.482;7.120;2022-11-14T00:36:09;2.60;99.90
1055;DHT22;516;51.482;7.120;2022-11-14T00:41:57;2.60;99.90
1055;DHT22;516;51.482;7.120;2022-11-14T00:47:45;2.40;99.90
1055;DHT22;516;51.482;7.120;2022-11-14T00:53:32;2.40;99.90
1055;DHT22;516;51.482;7.120;2022-11-14T00:59:20;2.60;99.90
1055;DHT22;516;51.482;7.120;2022-11-14T01:05:09;2.30;99.90
1055;DHT22;516;51.482;7.120;2022-11-14T01:14:18;2.10;99.90
1055;DHT22;516;51.482;7.120;2022-11-14T01:20:06;2.20;99.90
1055;DHT22;516;51.482;7.120;2022-11-14T01:32:25;2.10;99.90
1055;DHT22;516;51.482;7.120;2022-11-14T01:38:16;2.20;99.90
1055;DHT22;516;51.482;7.120;2022-11-14T01:50:35;2.00;99.90
1055;DHT22;516;51.482;7.120;2022-11-14T01:56:30;2.10;99.90
1055;DHT22;516;51.482;7.120;2022-11-14T02:02:22;1.90;99.90
1055;DHT22;516;51.482;7.120;2022-11-14T02:08:13;1.90;99.90
1055;DHT22;516;51.482;7.120;2022-11-14T02:14:02;1.80;99.90
1055;DHT22;516;51.482;7.120;2022-11-14T02:20:03;1.80;99.90
1055;DHT22;516;51.482;7.120;2022-11-14T02:26:10;1.70;99.90
1055;DHT22;516;51.482;7.120;2022-11-14T02:31:58;1.60;99.90
1055;DHT22;516;51.482;7.120;2022-11-14T02:37:46;1.60;99.90
1055;DHT22;516;51.482;7.120;2022-11-14T02:43:34;1.60;99.90
1055;DHT22;516;51.482;7.120;2022-11-14T02:49:21;1.60;99.90
1055;DHT22;516;51.482;7.120;2022-11-14T02:55:10;1.50;99.90
1055;DHT22;516;51.482;7.120;2022-11-14T03:00:57;1.40;99.90
1055;DHT22;516;51.482;7.120;2022-11-14T03:06:45;1.30;99.90
1055;DHT22;516;51.482;7.120;2022-11-14T03:16:44;1.30;99.90
1055;DHT22;516;51.482;7.120;2022-11-14T03:22:31;1.40;99.90
1055;DHT22;516;51.482;7.120;2022-11-14T03:28:19;1.40;99.90
1055;DHT22;516;51.482;7.120;2022-11-14T03:34:06;1.40;99.90
1055;DHT22;516;51.482;7.120;2022-11-14T03:39:53;1.40;99.90
1055;DHT22;516;51.482;7.120;2022-11-14T03:45:42;1.40;99.90
1055;DHT22;516;51.482;7.120;2022-11-14T03:51:29;1.30;99.90
1055;DHT22;516;51.482;7.120;2022-11-14T03:57:17;1.30;99.90
1055;DHT22;516;51.482;7.120;2022-11-14T04:03:05;1.10;99.90
1055;DHT22;516;51.482;7.120;2022-11-14T04:08:53;1.40;99.90
1055;DHT22;516;51.482;7.120;2022-11-14T04:14:43;1.30;99.90
1055;DHT22;516;51.482;7.120;2022-11-14T04:20:31;1.40;99.90
1055;DHT22;516;51.482;7.120;2022-11-14T04:26:19;1.30;99.90
1055;DHT22;516;51.482;7.120;2022-11-14T04:32:07;1.20;99.90
1055;DHT22;516;51.482;7.120;2022-11-14T04:37:54;1.20;99.90
1055;DHT22;516;51.482;7.120;2022-11-14T04:43:42;1.30;99.90
1055;DHT22;516;51.482;7.120;2022-11-14T04:49:30;1.30;99.90
1055;DHT22;516;51.482;7.120;2022-11-14T04:55:17;1.10;99.90
1055;DHT22;516;51.482;7.120;2022-11-14T05:01:09;1.00;99.90
1055;DHT22;516;51.482;7.120;2022-11-14T05:06:57;1.10;99.90
1055;DHT22;516;51.482;7.120;2022-11-14T05:09:43;1.00;99.90
1055;DHT22;516;51.482;7.120;2022-11-14T05:12:09;1.10;99.90
1055;DHT22;516;51.482;7.120;2022-11-14T05:17:58;1.00;99.90
1055;DHT22;516;51.482;7.120;2022-11-14T05:23:46;1.00;99.90
1055;DHT22;516;51.482;7.120;2022-11-14T05:29:33;1.10;99.90
1055;DHT22;516;51.482;7.120;2022-11-14T05:35:20;1.10;99.90
1055;DHT22;516;51.482;7.120;2022-11-14T05:41:13;1.10;99.90
1055;DHT22;516;51.482;7.120;2022-11-14T05:47:00;1.30;99.90
1055;DHT22;516;51.482;7.120;2022-11-14T05:52:46;1.40;99.90
1055;DHT22;516;51.482;7.120;2022-11-14T05:58:34;1.50;99.90
1055;DHT22;516;51.482;7.120;2022-11-14T06:04:22;1.40;99.90
1055;DHT22;516;51.482;7.120;2022-11-14T06:20:10;2.00;99.90
1055;DHT22;516;51.482;7.120;2022-11-14T06:26:04;5.00;99.90
1055;DHT22;516;51.482;7.120;2022-11-14T06:31:52;5.80;99.90
1055;DHT22;516;51.482;7.120;2022-11-14T06:37:40;6.30;99.90
1055;DHT22;516;51.482;7.120;2022-11-14T06:43:27;6.30;99.90
1055;DHT22;516;51.482;7.120;2022-11-14T06:49:15;6.50;99.90
1055;DHT22;516;51.482;7.120;2022-11-14T06:54:44;6.00;99.90
1055;DHT22;516;51.482;7.120;2022-11-14T07:00:32;5.90;99.90
1055;DHT22;516;51.482;7.120;2022-11-14T07:06:22;6.30;99.90
1055;DHT22;516;51.482;7.120;2022-11-14T07:12:10;6.80;99.90
1055;DHT22;516;51.482;7.120;2022-11-14T07:17:58;7.10;99.90
1055;DHT22;516;51.482;7.120;2022-11-14T07:23:46;6.70;99.90
1055;DHT22;516;51.482;7.120;2022-11-14T07:29:34;6.60;99.90
1055;DHT22;516;51.482;7.120;2022-11-14T07:35:22;7.10;99.90
1055;DHT22;516;51.482;7.120;2022-11-14T07:41:12;7.30;99.90
1055;DHT22;516;51.482;7.120;2022-11-14T07:47:00;7.50;99.90
1055;DHT22;516;51.482;7.120;2022-11-14T07:52:52;7.80;99.90
1055;DHT22;516;51.482;7.120;2022-11-14T07:58:40;7.80;99.90
1055;DHT22;516;51.482;7.120;2022-11-14T08:04:28;7.90;99.90
1055;DHT22;516;51.482;7.120;2022-11-14T08:20:10;12.20;70.30
1055;DHT22;516;51.482;7.120;2022-11-14T08:25:58;10.40;92.50
1055;DHT22;516;51.482;7.120;2022-11-14T08:31:46;10.60;94.40
1055;DHT22;516;51.482;7.120;2022-11-14T08:37:34;9.90;99.90
1055;DHT22;516;51.482;7.120;2022-11-14T08:43:21;9.90;99.90
1055;DHT22;516;51.482;7.120;2022-11-14T08:49:10;10.20;99.90
1055;DHT22;516;51.482;7.120;2022-11-14T08:54:57;9.90;99.90
1055;DHT22;516;51.482;7.120;2022-11-14T09:00:45;10.30;99.90
1055;DHT22;516;51.482;7.120;2022-11-14T09:06:33;10.30;99.90
1055;DHT22;516;51.482;7.120;2022-11-14T09:12:21;10.40;99.90
1055;DHT22;516;51.482;7.120;2022-11-14T09:18:09;9.10;99.90
1055;DHT22;516;51.482;7.120;2022-11-14T09:23:57;9.30;99.90
1055;DHT22;516;51.482;7.120;2022-11-14T09:29:45;9.80;99.90
1055;DHT22;516;51.482;7.120;2022-11-14T09:35:33;9.90;99.90
1055;DHT22;516;51.482;7.120;2022-11-14T09:41:23;9.20;99.90
1055;DHT22;516;51.482;7.120;2022-11-14T09:47:17;9.30;99.90
1055;DHT22;516;51.482;7.120;2022-11-14T09:53:18;9.40;99.90
1055;DHT22;516;51.482;7.120;2022-11-14T09:59:25;9.30;99.90
1055;DHT22;516;51.482;7.120;2022-11-14T10:34:25;9.20;99.90
1055;DHT22;516;51.482;7.120;2022-11-14T10:47:05;9.20;99.90
1055;DHT22;516;51.482;7.120;2022-11-14T10:53:00;9.10;99.90
1055;DHT22;516;51.482;7.120;2022-11-14T10:59:09;9.20;99.90
1055;DHT22;516;51.482;7.120;2022-11-14T11:05:10;9.20;99.90
1055;DHT22;516;51.482;7.120;2022-11-14T11:11:18;9.10;99.90
1055;DHT22;516;51.482;7.120;2022-11-14T11:14:03;9.30;99.90
1055;DHT22;516;51.482;7.120;2022-11-14T11:30:19;9.70;99.90
1055;DHT22;516;51.482;7.120;2022-11-14T11:36:19;11.70;99.90
1055;DHT22;516;51.482;7.120;2022-11-14T11:48:22;12.40;96.80
1055;DHT22;516;51.482;7.120;2022-11-14T11:54:29;12.00;95.90
1055;DHT22;516;51.482;7.120;2022-11-14T12:00:37;12.00;93.40
1055;DHT22;516;51.482;7.120;2022-11-14T12:06:26;13.30;80.70
1055;DHT22;516;51.482;7.120;2022-11-14T12:31:47;10.60;99.90
1055;DHT22;516;51.482;7.120;2022-11-14T12:37:37;10.60;99.90
1055;DHT22;516;51.482;7.120;2022-11-14T12:43:32;10.60;99.90
1055;DHT22;516;51.482;7.120;2022-11-14T12:46:02;10.90;99.90
1055;DHT22;516;51.482;7.120;2022-11-14T12:48:33;11.30;99.90
1055;DHT22;516;51.482;7.120;2022-11-14T12:54:02;10.90;99.90
1055;DHT22;516;51.482;7.120;2022-11-14T12:59:57;10.70;99.90
1055;DHT22;516;51.482;7.120;2022-11-14T13:12:35;10.60;99.90
1055;DHT22;516;51.482;7.120;2022-11-14T13:15:54;10.70;99.90
1055;DHT22;516;51.482;7.120;2022-11-14T13:25:32;10.70;99.90
1055;DHT22;516;51.482;7.120;2022-11-14T13:31:20;10.80;99.90
1055;DHT22;516;51.482;7.120;2022-11-14T13:44:05;11.20;99.90
1055;DHT22;516;51.482;7.120;2022-11-14T13:50:25;11.80;99.90
1055;DHT22;516;51.482;7.120;2022-11-14T13:56:55;11.30;99.90
1055;DHT22;516;51.482;7.120;2022-11-14T14:29:32;10.60;99.90
1055;DHT22;516;51.482;7.120;2022-11-14T14:35:26;10.60;99.90
1055;DHT22;516;51.482;7.120;2022-11-14T14:41:15;10.50;99.90
1055;DHT22;516;51.482;7.120;2022-11-14T14:53:51;10.50;99.90
1055;DHT22;516;51.482;7.120;2022-11-14T14:59:39;10.40;99.90
1055;DHT22;516;51.482;7.120;2022-11-14T15:05:29;10.40;99.90
1055;DHT22;516;51.482;7.120;2022-11-14T15:11:17;10.40;99.90
1055;DHT22;516;51.482;7.120;2022-11-14T15:30:28;10.20;99.90
1055;DHT22;516;51.482;7.120;2022-11-14T15:36:17;10.10;99.90
1055;DHT22;516;51.482;7.120;2022-11-14T15:45:48;10.00;99.90
1055;DHT22;516;51.482;7.120;2022-11-14T15:52:12;9.90;99.90
1055;DHT22;516;51.482;7.120;2022-11-14T15:58:13;9.90;99.90
1055;DHT22;516;51.482;7.120;2022-11-14T16:07:21;9.80;99.90
1055;DHT22;516;51.482;7.120;2022-11-14T16:13:09;9.80;99.90
1055;DHT22;516;51.482;7.120;2022-11-14T16:18:56;9.80;99.90
1055;DHT22;516;51.482;7.120;2022-11-14T16:24:43;9.80;99.90
1055;DHT22;516;51.482;7.120;2022-11-14T16:30:30;9.80;99.90
1055;DHT22;516;51.482;7.120;2022-11-14T16:36:20;9.80;99.90
1055;DHT22;516;51.482;7.120;2022-11-14T16:42:09;9.70;99.90
1055;DHT22;516;51.482;7.120;2022-11-14T16:47:57;9.80;99.90
1055;DHT22;516;51.482;7.120;2022-11-14T16:50:22;9.70;99.90
1055;DHT22;516;51.482;7.120;2022-11-14T16:52:48;9.70;99.90
1055;DHT22;516;51.482;7.120;2022-11-14T16:58:35;9.70;99.90
1055;DHT22;516;51.482;7.120;2022-11-14T17:04:25;9.70;99.90
1055;DHT22;516;51.482;7.120;2022-11-14T17:10:12;9.70;99.90
1055;DHT22;516;51.482;7.120;2022-11-14T17:16:04;9.70;99.90
1055;DHT22;516;51.482;7.120;2022-11-14T17:22:12;9.70;99.90
1055;DHT22;516;51.482;7.120;2022-11-14T17:27:59;9.70;99.90
1055;DHT22;516;51.482;7.120;2022-11-14T17:33:50;9.60;99.90
1055;DHT22;516;51.482;7.120;2022-11-14T17:39:37;9.60;99.90
1055;DHT22;516;51.482;7.120;2022-11-14T17:45:24;9.60;99.90
1055;DHT22;516;51.482;7.120;2022-11-14T17:51:14;9.60;99.90
1055;DHT22;516;51.482;7.120;2022-11-14T17:57:01;9.60;99.90
1055;DHT22;516;51.482;7.120;2022-11-14T18:02:49;9.60;99.90
1055;DHT22;516;51.482;7.120;2022-11-14T18:08:37;9.60;99.90
1055;DHT22;516;51.482;7.120;2022-11-14T18:14:25;9.60;99.90
1055;DHT22;516;51.482;7.120;2022-11-14T18:17:12;9.50;99.90
1055;DHT22;516;51.482;7.120;2022-11-14T18:19:38;9.60;99.90
1055;DHT22;516;51.482;7.120;2022-11-14T18:25:27;9.60;99.90
1055;DHT22;516;51.482;7.120;2022-11-14T18:31:15;9.60;99.90
1055;DHT22;516;51.482;7.120;2022-11-14T18:37:04;9.50;99.90
1055;DHT22;516;51.482;7.120;2022-11-14T18:42:51;9.50;99.90
1055;DHT22;516;51.482;7.120;2022-11-14T18:48:41;9.50;99.90
1055;DHT22;516;51.482;7.120;2022-11-14T18:54:12;9.50;99.90
1055;DHT22;516;51.482;7.120;2022-11-14T19:00:00;9.50;99.90
1055;DHT22;516;51.482;7.120;2022-11-14T19:05:49;9.50;99.90
1055;DHT22;516;51.482;7.120;2022-11-14T19:11:37;9.40;99.90
1055;DHT22;516;51.482;7.120;2022-11-14T19:21:46;9.40;99.90
1055;DHT22;516;51.482;7.120;2022-11-14T19:27:34;9.30;99.90
1055;DHT22;516;51.482;7.120;2022-11-14T19:33:22;9.30;99.90
1055;DHT22;516;51.482;7.120;2022-11-14T19:39:10;9.30;99.90
1055;DHT22;516;51.482;7.120;2022-11-14T19:44:57;9.20;99.90
1055;DHT22;516;51.482;7.120;2022-11-14T19:50:45;8.90;99.90
1055;DHT22;516;51.482;7.120;2022-11-14T19:56:33;8.70;99.90
1055;DHT22;516;51.482;7.120;2022-11-14T20:02:20;8.70;99.90
1055;DHT22;516;51.482;7.120;2022-11-14T20:08:08;8.60;99.90
1055;DHT22;516;51.482;7.120;2022-11-14T20:13:57;8.50;99.90
1055;DHT22;516;51.482;7.120;2022-11-14T20:19:55;8.40;99.90
1055;DHT22;516;51.482;7.120;2022-11-14T20:25:43;8.20;99.90
1055;DHT22;516;51.482;7.120;2022-11-14T20:31:36;8.10;99.90
1055;DHT22;516;51.482;7.120;2022-11-14T20:40:53;8.00;99.90
1055;DHT22;516;51.482;7.120;2022-11-14T20:46:58;7.80;99.90
1055;DHT22;516;51.482;7.120;2022-11-14T20:52:46;8.10;99.90
1055;DHT22;516;51.482;7.120;2022-11-14T20:58:34;8.30;99.90
1055;DHT22;516;51.482;7.120;2022-11-14T21:04:22;8.30;99.90
1055;DHT22;516;51.482;7.120;2022-11-14T21:10:10;8.40;99.90
1055;DHT22;516;51.482;7.120;2022-11-14T21:16:17;8.40;99.90
1055;DHT22;516;51.482;7.120;2022-11-14T21:22:05;8.40;99.90
1055;DHT22;516;51.482;7.120;2022-11-14T21:27:53;8.50;99.90
1055;DHT22;516;51.482;7.120;2022-11-14T21:33:42;8.50;99.90
1055;DHT22;516;51.482;7.120;2022-11-14T21:39:30;8.70;99.90
1055;DHT22;516;51.482;7.120;2022-11-14T21:45:17;8.70;99.90
1055;DHT22;516;51.482;7.120;2022-11-14T21:51:11;8.90;99.90
1055;DHT22;516;51.482;7.120;2022-11-14T21:56:59;8.90;99.90
1055;DHT22;516;51.482;7.120;2022-11-14T22:02:47;8.90;99.90
1055;DHT22;516;51.482;7.120;2022-11-14T22:08:54;9.00;99.90
1055;DHT22;516;51.482;7.120;2022-11-14T22:14:42;9.10;99.90
1055;DHT22;516;51.482;7.120;2022-11-14T22:17:11;9.10;99.90
1055;DHT22;516;51.482;7.120;2022-11-14T22:19:36;9.20;99.90
1055;DHT22;516;51.482;7.120;2022-11-14T22:25:24;9.30;99.90
1055;DHT22;516;51.482;7.120;2022-11-14T22:31:20;9.40;99.90
1055;DHT22;516;51.482;7.120;2022-11-14T22:37:08;9.50;99.90
1055;DHT22;516;51.482;7.120;2022-11-14T22:42:59;9.60;99.90
1055;DHT22;516;51.482;7.120;2022-11-14T22:48:47;9.80;99.90
1055;DHT22;516;51.482;7.120;2022-11-14T22:54:35;10.00;99.90
1055;DHT22;516;51.482;7.120;2022-11-14T23:00:23;10.00;99.90
1055;DHT22;516;51.482;7.120;2022-11-14T23:06:14;10.00;99.90
1055;DHT22;516;51.482;7.120;2022-11-14T23:12:01;9.90;99.90
1055;DHT22;516;51.482;7.120;2022-11-14T23:21:45;9.90;99.90
1055;DHT22;516;51.482;7.120;2022-11-14T23:27:33;10.20;99.90
1055;DHT22;516;51.482;7.120;2022-11-14T23:33:21;10.60;99.90
1055;DHT22;516;51.482;7.120;2022-11-14T23:39:08;10.70;99.90
1055;DHT22;516;51.482;7.120;2022-11-14T23:44:56;10.90;99.90
1055;DHT22;516;51.482;7.120;2022-11-14T23:50:47;11.10;99.90
1055;DHT22;516;51.482;7.120;2022-11-14T23:56:35;11.30;99.90
